Terminal Aerodrome Forecast
Issued by NWS Jackson, MS

Home | Current Version | Previous Version | Text Only | Print | Product List | Glossary On
Versions: 1 2 3 4 5 6 7 8 9 10 11 12 13 14 15 16 17 18 19
000
FTUS44 KJAN 241100
TAFHBG
TAF
KHBG 241120Z 2412/2512 19005KT P6SM SCT060
     FM241700 20008KT P6SM SCT040 BKN250
     FM250900 19008KT P6SM OVC020=

USA.gov is the U.S. government's official web portal to all federal, state and local government web resources and services.